Etusivu
METAR-TAF:

METAR-TAF

Lentoasemat :

Norrköping, Ruotsi

Leveyspiiri: 58-35N, Pituuspiiri: 016-09E, korkeus merenpinnasta: 34 m

Tämänhetkinen sää

Tämä raportti tehtiin 36 minuuttia sitten, kello 10.20 UTC
Tuuli 10 kn etelästä/lounaasta
Lämpötila 8°C
Kosteus 93%
Ilmanpaine 1013 hPa
Näkyvyys 10 km tai enemmän

METAR: ESSP 171020Z AUTO 21010KT 9999 BKN017/// OVC021/// 08/07 Q1013

Aika: 11:56 (10:56 UTC)

Sääennuste

Tämä raportti tehtiin 22 tuntia ja 19 minuuttia sitten, kello 12.37 UTC
Ennuste voimassa 16. päivästä klo 12 UTC - 16. päivään klo 14 UTC
Tuuli 14 kn idästä
Näkyvyys: 5000 m
Pilvistä 800 ft:n korkeudessa
Ajoittain
16. päivästä klo 12 UTC - 16. päivään klo 14 UTC
Näkyvyys: 2500 m
Pilvistä 400 ft:n korkeudessa
heikkoa tihkusadetta, utua

TAF: ESSP 161237Z 1612/1614 10014KT 5000 OVC008 TEMPO 1612/1614 2500 -DZ BR OVC004

Säähavainnot ja -ennusteet yli 4000 lentoasemalta (METAR- ja TAF-raportit).

Käytössä olevat sääasemat on merkitty karttaan keltaisilla ja punaisilla pisteillä.

Aseta hiiri pisteen päälle nähdäksesi sääaseman nimen.

Klikkaa sitten nähdäksesi säähavainnot ja -ennusteet.

Kartan vaihtaminen: klikkaa mustalla rastilla varustettuja vihreitä pisteitä, niin voit zoomata sisään; viivalla varustettua vihreää pistettä, niin voit zoomata ulos tai vihreitä nuolia, niin pääset viereisille kartoille.


METAR-TAF: